Time;durP1;ratioP1;P1;durP2;ratioP2;P2;SDS_P1;SDS_P2;PMS_P1;PMS_P2;Temp;Humidity;BMP_temperature;BMP_pressure;BME280_temperature;BME280_humidity;BME280_pressure;Samples;Min_cycle;Max_cycle;Signal;HPM_P1;HPM_P2
2022/05/02 00:00:00;;;;;;;15.33;11.40;;;7.20;99.90;;;;;;5077295;28;20162;-72
2022/05/02 00:02:25;;;;;;;16.73;12.40;;;7.30;99.90;;;;;;5075661;28;20235;-72
2022/05/02 00:04:51;;;;;;;13.80;11.43;;;7.30;99.90;;;;;;5076564;28;20583;-72
2022/05/02 00:07:17;;;;;;;15.00;12.33;;;7.30;99.90;;;;;;5076714;28;20178;-71
2022/05/02 00:09:43;;;;;;;15.97;12.77;;;7.30;99.90;;;;;;5075348;28;20668;-71
2022/05/02 00:12:10;;;;;;;13.50;12.03;;;7.20;99.90;;;;;;5076744;28;20280;-72
2022/05/02 00:14:35;;;;;;;15.83;13.03;;;7.10;99.90;;;;;;5077241;28;20216;-72
2022/05/02 00:17:02;;;;;;;13.50;11.50;;;7.10;99.90;;;;;;5077033;28;20594;-72
2022/05/02 00:19:28;;;;;;;15.07;11.53;;;7.10;99.90;;;;;;5075580;28;20227;-71
2022/05/02 00:21:53;;;;;;;14.90;12.60;;;7.20;99.90;;;;;;5076632;28;20538;-71
2022/05/02 00:24:19;;;;;;;17.30;13.03;;;7.20;99.90;;;;;;5076320;28;20193;-71
2022/05/02 00:26:45;;;;;;;14.90;12.13;;;7.20;99.90;;;;;;5076502;28;20256;-71
2022/05/02 00:29:10;;;;;;;17.40;12.83;;;7.20;99.90;;;;;;5076239;28;20166;-71
2022/05/02 00:31:36;;;;;;;16.97;13.23;;;7.20;99.90;;;;;;5076415;28;20170;-71
2022/05/02 00:34:02;;;;;;;17.83;13.27;;;7.30;99.90;;;;;;5076279;28;20684;-71
2022/05/02 00:36:28;;;;;;;16.80;12.40;;;7.30;99.90;;;;;;5074785;28;20202;-71
2022/05/02 00:38:53;;;;;;;15.50;12.53;;;7.20;99.90;;;;;;5076287;28;20181;-72
2022/05/02 00:41:20;;;;;;;16.97;13.23;;;7.20;99.90;;;;;;5076665;28;20578;-71
2022/05/02 00:43:46;;;;;;;15.90;12.17;;;7.20;99.90;;;;;;5075937;28;20700;-70
2022/05/02 00:46:22;;;;;;;17.53;12.77;;;7.20;99.90;;;;;;5074539;28;20186;-70
2022/05/02 00:48:49;;;;;;;16.63;14.03;;;7.30;99.90;;;;;;5076060;28;20165;-70
2022/05/02 00:51:15;;;;;;;17.97;13.33;;;7.30;99.90;;;;;;5075810;28;20178;-70
2022/05/02 00:53:43;;;;;;;19.87;14.20;;;7.30;99.90;;;;;;5075895;28;20233;-70
2022/05/02 00:56:09;;;;;;;17.53;14.00;;;7.30;99.90;;;;;;5074411;28;20208;-70
2022/05/02 00:58:36;;;;;;;19.07;14.13;;;7.30;99.90;;;;;;5074660;28;20184;-70
2022/05/02 01:01:03;;;;;;;17.30;13.83;;;7.20;99.90;;;;;;5074596;28;20177;-70
2022/05/02 01:03:29;;;;;;;18.70;14.23;;;7.30;99.90;;;;;;5075997;28;20224;-70
2022/05/02 01:08:40;;;;;;;17.10;13.33;;;7.30;99.90;;;;;;5075264;28;20224;-70
2022/05/02 01:11:06;;;;;;;19.20;13.87;;;7.20;99.90;;;;;;5075391;28;20193;-70
2022/05/02 01:13:40;;;;;;;17.70;12.80;;;7.20;99.90;;;;;;5075252;28;20198;-70
2022/05/02 01:16:17;;;;;;;16.73;13.17;;;7.00;99.90;;;;;;5075645;28;20194;-70
2022/05/02 01:18:45;;;;;;;18.53;13.80;;;7.00;99.90;;;;;;5075361;28;20170;-70
2022/05/02 01:21:15;;;;;;;20.10;13.80;;;7.10;99.90;;;;;;5073710;28;20184;-70
2022/05/02 01:23:46;;;;;;;16.93;13.30;;;7.10;99.90;;;;;;5074974;28;20190;-70
2022/05/02 01:26:12;;;;;;;15.93;12.43;;;7.00;99.90;;;;;;5075037;28;20531;-70
2022/05/02 01:28:42;;;;;;;19.63;12.60;;;7.00;99.90;;;;;;5073709;28;20497;-70
2022/05/02 01:31:07;;;;;;;16.33;12.87;;;6.90;99.90;;;;;;5075043;28;20669;-70
2022/05/02 01:33:35;;;;;;;17.40;12.50;;;6.80;99.90;;;;;;5074765;28;20194;-70
2022/05/02 01:36:01;;;;;;;19.40;12.93;;;6.80;99.90;;;;;;5074406;28;20244;-70
2022/05/02 01:38:26;;;;;;;18.57;12.77;;;6.70;99.90;;;;;;5073302;28;20215;-70
2022/05/02 01:40:52;;;;;;;15.50;12.43;;;6.70;99.90;;;;;;5073413;28;20598;-70
2022/05/02 01:43:18;;;;;;;16.43;12.47;;;6.70;99.90;;;;;;5072869;28;20197;-70
2022/05/02 01:45:43;;;;;;;17.17;13.27;;;6.70;99.90;;;;;;5074672;28;20712;-70
2022/05/02 01:48:09;;;;;;;15.20;12.43;;;6.70;99.90;;;;;;5074658;28;20181;-70
2022/05/02 01:50:35;;;;;;;16.60;13.30;;;6.80;99.90;;;;;;5074477;28;20177;-70
2022/05/02 01:53:01;;;;;;;14.17;12.63;;;6.80;99.90;;;;;;5073280;28;20185;-70
2022/05/02 01:55:26;;;;;;;16.63;13.13;;;6.80;99.90;;;;;;5074270;28;20194;-70
2022/05/02 01:57:52;;;;;;;17.37;13.37;;;6.80;99.90;;;;;;5073302;28;20174;-70
2022/05/02 02:00:19;;;;;;;17.23;12.83;;;6.80;99.90;;;;;;5074528;28;20173;-70
2022/05/02 02:02:44;;;;;;;19.27;14.07;;;6.70;99.90;;;;;;5074341;28;20310;-70
2022/05/02 02:07:54;;;;;;;18.67;15.07;;;6.70;99.90;;;;;;5074204;28;20189;-70
2022/05/02 02:10:20;;;;;;;17.23;14.23;;;6.60;99.90;;;;;;5074763;28;20173;-71
2022/05/02 02:12:45;;;;;;;18.77;14.20;;;6.60;99.90;;;;;;5074273;28;20193;-70
2022/05/02 02:15:14;;;;;;;19.67;14.80;;;6.50;99.90;;;;;;5072833;28;20296;-70
2022/05/02 02:17:43;;;;;;;18.67;14.33;;;6.40;99.90;;;;;;5074144;28;20623;-70
2022/05/02 02:20:12;;;;;;;22.23;15.93;;;6.50;99.90;;;;;;5072703;28;20257;-70
2022/05/02 02:22:39;;;;;;;18.60;14.83;;;6.50;99.90;;;;;;5073851;28;20166;-70
2022/05/02 02:25:06;;;;;;;18.13;14.27;;;6.50;99.90;;;;;;5072561;28;20259;-70
2022/05/02 02:27:32;;;;;;;21.50;14.87;;;6.50;99.90;;;;;;5074178;28;20488;-70
2022/05/02 02:29:59;;;;;;;20.80;14.47;;;6.50;99.90;;;;;;5072590;28;20264;-70
2022/05/02 02:32:24;;;;;;;16.93;14.00;;;6.50;99.90;;;;;;5072549;28;20182;-70
2022/05/02 02:34:50;;;;;;;18.70;14.70;;;6.40;99.90;;;;;;5073751;28;20258;-70
2022/05/02 02:37:16;;;;;;;21.37;15.77;;;6.40;99.90;;;;;;5073758;28;20213;-70
2022/05/02 02:39:43;;;;;;;22.30;15.97;;;6.50;99.90;;;;;;5073890;28;20197;-70
2022/05/02 02:42:09;;;;;;;19.33;15.70;;;6.40;99.90;;;;;;5072844;28;20176;-70
2022/05/02 02:44:35;;;;;;;18.43;15.40;;;6.50;99.90;;;;;;5072632;28;20202;-70
2022/05/02 02:47:01;;;;;;;19.87;14.07;;;6.40;99.90;;;;;;5073970;28;20205;-70
2022/05/02 02:49:27;;;;;;;17.33;13.87;;;6.30;99.90;;;;;;5073962;28;20173;-70
2022/05/02 02:51:53;;;;;;;19.47;14.83;;;6.20;99.90;;;;;;5074011;28;20208;-70
2022/05/02 02:54:18;;;;;;;18.70;14.50;;;6.10;99.90;;;;;;5072982;28;20201;-70
2022/05/02 02:56:44;;;;;;;18.70;14.53;;;6.10;99.90;;;;;;5074544;28;20158;-70
2022/05/02 02:59:10;;;;;;;19.87;14.90;;;6.10;99.90;;;;;;5074765;28;20178;-70
2022/05/02 03:01:36;;;;;;;18.23;13.67;;;6.10;99.90;;;;;;5072761;28;20184;-70
2022/05/02 03:06:01;;;;;;;17.90;14.33;;;6.10;99.90;;;;;;5072907;28;20197;-70
2022/05/02 03:06:48;;;;;;;17.87;14.50;;;6.10;99.90;;;;;;5073286;28;20204;-70
2022/05/02 03:09:14;;;;;;;24.20;16.73;;;6.10;99.90;;;;;;5073785;28;20706;-70
2022/05/02 03:11:40;;;;;;;20.40;15.83;;;6.10;99.90;;;;;;5073351;28;20189;-70
2022/05/02 03:14:05;;;;;;;17.83;14.47;;;6.00;99.90;;;;;;5073684;28;20720;-71
2022/05/02 03:16:31;;;;;;;16.77;13.73;;;5.90;99.90;;;;;;5072759;28;20205;-70
2022/05/02 03:18:56;;;;;;;18.00;14.23;;;5.70;99.90;;;;;;5073884;28;20216;-70
2022/05/02 03:21:22;;;;;;;19.30;14.67;;;5.70;99.90;;;;;;5073591;28;20170;-70
2022/05/02 03:23:48;;;;;;;20.03;15.17;;;5.60;99.90;;;;;;5072290;28;20285;-70
2022/05/02 03:26:14;;;;;;;17.93;14.10;;;5.70;99.90;;;;;;5073487;28;20177;-70
2022/05/02 03:28:40;;;;;;;18.43;14.73;;;5.70;99.90;;;;;;5072571;28;20188;-70
2022/05/02 03:31:05;;;;;;;19.20;14.20;;;5.80;99.90;;;;;;5073515;28;20178;-70
2022/05/02 03:33:31;;;;;;;19.40;14.90;;;5.80;99.90;;;;;;5071845;28;20202;-70
2022/05/02 03:35:56;;;;;;;18.97;15.20;;;5.90;99.90;;;;;;5073191;28;20617;-70
2022/05/02 03:38:22;;;;;;;18.07;15.00;;;5.90;99.90;;;;;;5071586;28;20578;-70
2022/05/02 03:40:48;;;;;;;18.67;14.13;;;5.90;99.90;;;;;;5073467;28;20532;-72
2022/05/02 03:43:14;;;;;;;22.07;15.23;;;5.90;99.90;;;;;;5073227;28;20171;-70
2022/05/02 03:45:39;;;;;;;18.23;13.60;;;5.80;99.90;;;;;;5071881;28;20213;-70
2022/05/02 03:48:05;;;;;;;16.70;14.30;;;5.80;99.90;;;;;;5073190;28;20177;-70
2022/05/02 03:50:31;;;;;;;17.00;14.50;;;5.80;99.90;;;;;;5072466;28;20631;-70
2022/05/02 03:52:57;;;;;;;18.90;13.40;;;5.70;99.90;;;;;;5073072;28;20257;-70
2022/05/02 03:55:23;;;;;;;18.77;14.07;;;5.70;99.90;;;;;;5073183;28;20232;-70
2022/05/02 03:57:49;;;;;;;18.40;14.23;;;5.60;99.90;;;;;;5072046;28;20182;-70
2022/05/02 04:00:15;;;;;;;21.70;15.33;;;5.60;99.90;;;;;;5073638;28;20189;-70
2022/05/02 04:02:41;;;;;;;18.27;14.27;;;5.50;99.90;;;;;;5071703;28;20185;-70
2022/05/02 04:05:07;;;;;;;19.00;14.47;;;5.50;99.90;;;;;;5073174;28;20201;-70
2022/05/02 04:07:33;;;;;;;17.97;14.47;;;5.50;99.90;;;;;;5074223;28;20209;-70
2022/05/02 04:09:59;;;;;;;18.77;14.47;;;5.50;99.90;;;;;;5075504;28;20216;-69
2022/05/02 04:12:25;;;;;;;17.50;13.40;;;5.60;99.90;;;;;;5076612;28;20193;-70
2022/05/02 04:14:50;;;;;;;23.90;15.50;;;5.70;99.90;;;;;;5076768;28;20202;-70
2022/05/02 04:17:16;;;;;;;21.30;15.73;;;5.70;99.90;;;;;;5075617;28;20170;-70
2022/05/02 04:19:42;;;;;;;20.83;14.67;;;5.70;99.90;;;;;;5076710;28;20531;-70
2022/05/02 04:22:08;;;;;;;23.03;15.33;;;5.80;99.90;;;;;;5076464;28;20181;-70
2022/05/02 04:24:34;;;;;;;19.00;15.13;;;5.90;99.90;;;;;;5076801;28;20186;-70
2022/05/02 04:26:59;;;;;;;19.97;14.50;;;5.90;99.90;;;;;;5075476;28;20174;-71
2022/05/02 04:29:25;;;;;;;20.30;14.53;;;5.90;99.90;;;;;;5076377;28;20173;-70
2022/05/02 04:31:51;;;;;;;18.20;13.93;;;5.90;99.90;;;;;;5076381;28;20170;-70
2022/05/02 04:34:17;;;;;;;21.33;13.03;;;6.00;99.90;;;;;;5076339;28;20220;-71
2022/05/02 04:36:43;;;;;;;20.03;14.07;;;6.00;99.90;;;;;;5076181;28;20170;-70
2022/05/02 04:39:08;;;;;;;17.73;13.90;;;6.00;99.90;;;;;;5076034;28;20666;-70
2022/05/02 04:41:34;;;;;;;18.80;13.37;;;6.00;99.90;;;;;;5076136;28;20174;-70
2022/05/02 04:44:00;;;;;;;17.00;13.03;;;6.00;99.90;;;;;;5074642;28;20205;-70
2022/05/02 04:46:27;;;;;;;15.93;13.63;;;6.00;99.90;;;;;;5076528;28;20174;-70
2022/05/02 04:48:53;;;;;;;20.43;14.77;;;6.00;99.90;;;;;;5074821;28;20260;-70
2022/05/02 04:51:18;;;;;;;22.00;15.83;;;6.00;99.90;;;;;;5074881;28;20231;-70
2022/05/02 04:53:44;;;;;;;20.80;15.50;;;6.00;99.90;;;;;;5076282;28;20727;-70
2022/05/02 04:56:10;;;;;;;20.37;16.23;;;6.10;99.90;;;;;;5076503;28;20197;-71
2022/05/02 04:58:36;;;;;;;24.40;16.93;;;6.10;99.90;;;;;;5080277;28;20185;-71
2022/05/02 05:01:06;;;;;;;21.00;16.57;;;6.20;99.90;;;;;;5079753;28;20166;-70
2022/05/02 05:03:32;;;;;;;21.37;16.23;;;6.20;99.90;;;;;;5079727;28;20192;-69
2022/05/02 05:05:57;;;;;;;18.93;14.90;;;6.30;99.90;;;;;;5078152;28;20249;-70
2022/05/02 05:08:23;;;;;;;26.63;16.97;;;6.40;99.90;;;;;;5076029;28;20272;-70
2022/05/02 05:11:04;;;;;;;22.33;16.47;;;6.40;99.90;;;;;;5074512;28;20196;-70
2022/05/02 05:17:17;;;;;;;19.40;15.50;;;6.50;99.90;;;;;;5038634;28;20278;-70
2022/05/02 05:19:57;;;;;;;23.40;16.00;;;6.60;99.90;;;;;;5075282;28;20257;-70
2022/05/02 05:22:44;;;;;;;22.43;15.23;;;6.70;99.90;;;;;;5074381;28;20178;-70
2022/05/02 05:25:17;;;;;;;20.50;14.97;;;6.70;99.90;;;;;;5075560;28;20205;-70
2022/05/02 05:28:13;;;;;;;20.40;15.20;;;6.70;99.90;;;;;;5076543;28;20660;-70
2022/05/02 05:30:44;;;;;;;23.70;16.50;;;6.80;99.90;;;;;;5076772;28;20154;-69
2022/05/02 05:33:36;;;;;;;18.47;14.33;;;6.80;99.90;;;;;;5075751;28;20161;-69
2022/05/02 05:36:13;;;;;;;19.57;15.30;;;6.90;99.90;;;;;;5074058;28;20206;-70
2022/05/02 05:38:54;;;;;;;18.93;14.90;;;7.00;99.90;;;;;;5073559;28;20221;-71
2022/05/02 05:41:38;;;;;;;18.33;14.70;;;7.00;99.90;;;;;;5073941;28;20162;-71
2022/05/02 05:44:36;;;;;;;19.33;15.67;;;7.20;99.90;;;;;;5074013;28;20201;-71
2022/05/02 05:47:16;;;;;;;21.23;15.33;;;7.20;99.90;;;;;;5063879;28;20666;-71
2022/05/02 05:50:16;;;;;;;21.83;15.30;;;7.20;99.90;;;;;;5074963;28;20615;-69
2022/05/02 05:53:36;;;;;;;19.57;15.70;;;7.40;99.90;;;;;;5074279;28;20158;-69
2022/05/02 05:56:18;;;;;;;19.50;15.33;;;7.40;99.90;;;;;;5055890;28;20205;-70
2022/05/02 05:59:05;;;;;;;18.00;15.10;;;7.50;99.90;;;;;;5072510;28;20205;-71
2022/05/02 06:01:55;;;;;;;20.87;15.33;;;7.70;99.90;;;;;;5074232;28;20730;-70
2022/05/02 06:04:23;;;;;;;19.93;16.20;;;7.80;99.90;;;;;;5074231;28;20213;-68
2022/05/02 06:06:50;;;;;;;19.77;15.40;;;7.90;99.90;;;;;;5074322;28;20213;-69
2022/05/02 06:09:16;;;;;;;19.10;15.33;;;8.00;99.90;;;;;;5073119;28;20190;-69
2022/05/02 06:11:46;;;;;;;20.50;15.23;;;8.10;99.90;;;;;;5074487;28;20216;-69
2022/05/02 06:14:13;;;;;;;20.27;16.63;;;8.20;99.90;;;;;;5074480;28;20198;-69
2022/05/02 06:19:28;;;;;;;20.60;15.53;;;8.20;99.90;;;;;;5074538;28;20185;-69
2022/05/02 06:21:55;;;;;;;18.00;14.47;;;8.30;99.90;;;;;;5074881;28;20189;-70
2022/05/02 06:24:31;;;;;;;18.87;14.07;;;8.40;99.90;;;;;;5074779;28;20198;-69
2022/05/02 06:26:59;;;;;;;22.10;16.03;;;8.60;99.90;;;;;;5074668;28;20153;-69
2022/05/02 06:29:25;;;;;;;19.43;15.67;;;8.60;99.90;;;;;;5073036;28;20257;-69
2022/05/02 06:31:54;;;;;;;21.47;15.23;;;8.60;99.90;;;;;;5072942;28;20178;-69
2022/05/02 06:34:27;;;;;;;17.33;14.77;;;8.80;99.90;;;;;;5074101;28;20224;-69
2022/05/02 06:37:05;;;;;;;19.77;15.83;;;8.80;99.90;;;;;;5074290;28;20168;-71
2022/05/02 06:40:01;;;;;;;18.67;14.90;;;9.00;99.90;;;;;;5074423;28;20173;-69
2022/05/02 06:42:33;;;;;;;18.53;14.77;;;9.10;99.90;;;;;;5072602;28;20685;-69
2022/05/02 06:45:33;;;;;;;18.07;14.00;;;9.10;99.90;;;;;;5073773;28;20247;-69
2022/05/02 06:49:00;;;;;;;18.80;14.77;;;9.10;99.90;;;;;;5072803;28;20544;-69
2022/05/02 06:51:39;;;;;;;19.50;13.83;;;9.20;99.90;;;;;;5060186;28;20292;-69
2022/05/02 06:54:16;;;;;;;22.10;14.33;;;9.50;99.90;;;;;;5072423;28;20220;-70
2022/05/02 06:56:50;;;;;;;17.40;14.87;;;9.60;99.90;;;;;;5074003;28;20200;-69
2022/05/02 06:59:37;;;;;;;19.17;14.43;;;9.80;99.90;;;;;;5072548;28;20188;-69
2022/05/02 07:02:12;;;;;;;19.83;13.93;;;9.90;99.90;;;;;;5074059;28;20162;-69
2022/05/02 07:04:53;;;;;;;17.20;13.53;;;10.00;99.90;;;;;;5073585;28;20193;-69
2022/05/02 07:07:43;;;;;;;17.83;15.17;;;10.10;99.90;;;;;;5073542;28;20166;-69
2022/05/02 07:10:18;;;;;;;15.97;12.97;;;10.20;99.90;;;;;;5072073;28;20182;-69
2022/05/02 07:13:11;;;;;;;19.40;13.23;;;10.10;99.90;;;;;;5073893;28;20182;-69
2022/05/02 07:15:51;;;;;;;16.10;13.67;;;10.20;99.90;;;;;;5074027;28;20201;-69
2022/05/02 07:18:48;;;;;;;16.13;12.77;;;10.20;99.90;;;;;;5073778;28;20172;-69
2022/05/02 07:21:17;;;;;;;18.43;14.20;;;10.30;99.90;;;;;;5073674;28;20158;-69
2022/05/02 07:24:21;;;;;;;17.67;13.80;;;10.20;99.90;;;;;;5073324;28;20186;-69
2022/05/02 07:27:00;;;;;;;17.87;14.13;;;10.30;99.90;;;;;;5072363;28;20189;-69
2022/05/02 07:29:28;;;;;;;18.77;14.50;;;10.30;99.90;;;;;;5072486;28;20184;-70
2022/05/02 07:31:55;;;;;;;17.80;14.37;;;10.30;99.90;;;;;;5072319;28;20212;-69
2022/05/02 07:34:22;;;;;;;18.77;14.47;;;10.40;99.90;;;;;;5073407;28;20239;-69
2022/05/02 07:36:51;;;;;;;18.70;14.03;;;10.60;99.90;;;;;;5073319;28;20722;-69
2022/05/02 07:39:21;;;;;;;17.03;13.90;;;10.80;99.90;;;;;;5072978;28;20183;-69
2022/05/02 07:41:50;;;;;;;18.43;14.37;;;11.00;99.90;;;;;;5075066;28;20668;-69
2022/05/02 07:44:18;;;;;;;23.37;15.93;;;11.00;99.90;;;;;;5077046;28;20201;-69
2022/05/02 07:46:46;;;;;;;20.67;14.53;;;11.10;99.90;;;;;;5077046;28;20235;-69
2022/05/02 07:49:34;;;;;;;19.27;14.63;;;11.10;99.90;;;;;;5076949;28;20231;-69
2022/05/02 07:52:03;;;;;;;17.97;13.63;;;11.10;99.90;;;;;;5077542;28;20166;-69
2022/05/02 07:54:35;;;;;;;17.63;13.90;;;11.30;99.90;;;;;;5076469;28;20201;-69
2022/05/02 07:57:03;;;;;;;17.07;12.40;;;11.30;99.90;;;;;;5077466;28;20189;-69
2022/05/02 07:59:40;;;;;;;14.83;12.03;;;11.50;99.90;;;;;;5075498;28;20266;-69
2022/05/02 08:02:06;;;;;;;18.07;12.33;;;11.60;99.90;;;;;;5077091;28;20244;-69
2022/05/02 08:04:32;;;;;;;17.83;13.20;;;11.90;99.90;;;;;;5075260;28;20202;-69
2022/05/02 08:07:16;;;;;;;15.17;12.33;;;12.10;99.90;;;;;;5075358;28;20182;-70
2022/05/02 08:09:59;;;;;;;15.00;12.57;;;12.20;99.90;;;;;;5075960;28;20221;-71
2022/05/02 08:12:25;;;;;;;13.60;12.00;;;12.30;99.90;;;;;;5075348;28;20190;-71
2022/05/02 08:14:58;;;;;;;15.20;12.93;;;12.50;99.90;;;;;;5076847;28;20537;-70
2022/05/02 08:17:33;;;;;;;16.98;12.00;;;12.60;99.90;;;;;;5075300;28;20628;-71
2022/05/02 08:20:06;;;;;;;17.75;12.15;;;12.90;99.90;;;;;;5075417;28;20528;-71
2022/05/02 08:28:54;;;;;;;15.45;10.80;;;14.30;99.90;;;;;;5076677;28;20634;-67
2022/05/02 08:31:24;;;;;;;15.20;10.48;;;15.10;99.90;;;;;;5074900;28;20170;-68
2022/05/02 08:34:11;;;;;;;12.82;10.57;;;15.90;99.90;;;;;;5077335;28;20196;-68
2022/05/02 08:37:04;;;;;;;13.32;10.80;;;16.70;99.90;;;;;;5076029;28;20194;-70
2022/05/02 08:40:15;;;;;;;12.98;10.65;;;16.70;99.90;;;;;;5075003;28;20586;-71
2022/05/02 08:42:44;;;;;;;10.82;9.40;;;16.60;99.90;;;;;;5076293;28;20155;-69
2022/05/02 08:45:21;;;;;;;11.88;9.75;;;16.40;99.90;;;;;;5077531;28;20189;-69
2022/05/02 08:48:21;;;;;;;13.60;10.52;;;16.50;99.90;;;;;;5076089;28;20214;-70
2022/05/02 08:51:19;;;;;;;13.90;10.82;;;16.60;99.90;;;;;;5077724;28;20184;-68
2022/05/02 08:54:27;;;;;;;15.68;10.82;;;16.20;99.90;;;;;;5073173;28;20228;-69
2022/05/02 08:56:56;;;;;;;14.43;11.32;;;15.40;99.90;;;;;;5077719;28;20163;-68
2022/05/02 08:59:43;;;;;;;17.38;10.95;;;15.40;99.90;;;;;;5074954;28;20194;-70
2022/05/02 09:02:24;;;;;;;14.80;10.85;;;15.40;99.90;;;;;;5075574;28;20246;-70
2022/05/02 09:05:14;;;;;;;15.95;11.15;;;15.60;99.90;;;;;;5075483;28;20198;-70
2022/05/02 09:08:01;;;;;;;11.52;9.73;;;15.80;99.90;;;;;;5075228;28;20706;-70
2022/05/02 09:10:42;;;;;;;13.77;11.70;;;15.80;99.90;;;;;;5074108;28;20186;-70
2022/05/02 09:13:29;;;;;;;12.30;10.23;;;16.10;99.90;;;;;;5073858;28;20242;-70
2022/05/02 09:16:28;;;;;;;15.48;10.60;;;16.30;99.90;;;;;;5075402;28;20186;-69
2022/05/02 09:19:27;;;;;;;15.65;10.13;;;16.40;99.90;;;;;;5075745;28;20165;-70
2022/05/02 09:22:16;;;;;;;13.45;10.73;;;16.30;99.90;;;;;;5072368;28;20601;-70
2022/05/02 09:25:04;;;;;;;15.50;10.50;;;16.40;99.90;;;;;;5074134;28;20234;-70
2022/05/02 09:27:55;;;;;;;13.10;10.82;;;16.40;99.90;;;;;;5075752;28;20157;-70
2022/05/02 09:30:39;;;;;;;13.10;10.73;;;16.50;99.90;;;;;;5075911;28;20162;-69
2022/05/02 09:33:14;;;;;;;16.88;10.45;;;16.60;99.90;;;;;;5074448;28;20177;-70
2022/05/02 09:35:58;;;;;;;14.93;10.27;;;16.80;99.90;;;;;;5074459;28;20220;-70
2022/05/02 09:38:25;;;;;;;15.10;11.05;;;16.90;99.90;;;;;;5073852;28;20177;-70
2022/05/02 09:41:00;;;;;;;17.67;11.45;;;17.10;99.90;;;;;;5074203;28;20239;-69
2022/05/02 09:50:22;;;;;;;12.77;10.18;;;17.60;99.90;;;;;;5074798;28;20161;-70
2022/05/02 09:53:30;;;;;;;16.08;11.13;;;17.70;99.90;;;;;;5073311;28;20207;-69
2022/05/02 09:59:14;;;;;;;13.98;11.23;;;18.20;99.90;;;;;;5075201;28;20165;-70
2022/05/02 10:01:46;;;;;;;18.05;10.60;;;18.10;99.90;;;;;;5074895;28;20248;-69
2022/05/02 10:04:42;;;;;;;16.98;11.25;;;18.10;99.90;;;;;;5074224;28;20181;-69
2022/05/02 10:07:10;;;;;;;17.38;11.73;;;18.10;99.90;;;;;;5075261;28;20162;-69
2022/05/02 10:09:54;;;;;;;15.13;10.57;;;17.80;99.90;;;;;;5074278;28;20331;-68
2022/05/02 10:12:32;;;;;;;15.75;10.50;;;17.90;99.90;;;;;;5073119;28;20284;-70
2022/05/02 10:15:04;;;;;;;13.05;10.75;;;18.00;99.90;;;;;;5074459;28;20732;-70
2022/05/02 10:17:51;;;;;;;14.70;11.05;;;18.00;99.90;;;;;;5072989;28;20185;-70
2022/05/02 10:20:22;;;;;;;12.43;10.30;;;18.20;99.90;;;;;;5073342;28;20211;-70
2022/05/02 10:23:14;;;;;;;15.38;10.18;;;18.50;99.90;;;;;;5074978;28;20237;-71
2022/05/02 10:25:51;;;;;;;17.30;11.38;;;18.60;99.90;;;;;;5075381;28;20248;-70
2022/05/02 10:28:36;;;;;;;13.40;10.43;;;18.50;99.90;;;;;;5076244;28;20162;-70
2022/05/02 10:31:09;;;;;;;19.48;11.60;;;18.70;99.90;;;;;;5075648;28;20166;-70
2022/05/02 10:33:44;;;;;;;14.23;11.05;;;18.70;99.90;;;;;;5073753;28;20221;-71
2022/05/02 10:36:11;;;;;;;17.83;11.07;;;18.80;99.90;;;;;;5076198;28;20243;-70
2022/05/02 10:38:54;;;;;;;17.75;10.75;;;18.60;99.90;;;;;;5075008;28;20245;-69
2022/05/02 10:41:43;;;;;;;15.90;10.55;;;18.80;99.90;;;;;;5075079;28;20185;-71
2022/05/02 10:44:11;;;;;;;12.57;9.90;;;18.90;99.90;;;;;;5073943;28;20205;-68
2022/05/02 10:46:40;;;;;;;14.50;10.40;;;19.00;99.90;;;;;;5072711;28;20182;-69
2022/05/02 10:49:15;;;;;;;17.25;12.27;;;18.90;99.90;;;;;;5072630;28;20183;-67
2022/05/02 10:52:12;;;;;;;15.52;11.85;;;18.70;99.90;;;;;;5072564;28;20288;-70
2022/05/02 10:54:49;;;;;;;12.15;10.52;;;18.80;99.90;;;;;;5073030;28;20255;-71
2022/05/02 10:57:38;;;;;;;11.38;8.75;;;18.90;99.90;;;;;;5073968;28;20154;-71
2022/05/02 11:00:10;;;;;;;15.43;10.82;;;19.20;99.90;;;;;;5072839;28;20181;-71
2022/05/02 11:02:50;;;;;;;13.93;9.98;;;19.40;99.90;;;;;;5074150;28;20248;-71
2022/05/02 11:05:25;;;;;;;14.10;9.85;;;19.50;99.90;;;;;;5073631;28;20201;-71
2022/05/02 11:08:11;;;;;;;13.27;10.55;;;19.80;99.90;;;;;;5073432;28;20223;-71
2022/05/02 11:10:52;;;;;;;13.05;10.77;;;20.00;99.90;;;;;;5073499;28;20201;-71
2022/05/02 11:13:32;;;;;;;15.10;9.55;;;19.90;99.90;;;;;;5073769;28;20173;-71
2022/05/02 11:16:20;;;;;;;13.23;9.82;;;20.10;99.90;;;;;;5072675;28;20549;-70
2022/05/02 11:21:53;;;;;;;11.55;8.70;;;20.40;99.90;;;;;;5077536;28;20166;-71
2022/05/02 11:25:02;;;;;;;13.07;9.38;;;20.70;99.90;;;;;;5076043;28;20689;-71
2022/05/02 11:27:55;;;;;;;14.80;9.30;;;20.90;99.90;;;;;;5068378;28;20193;-71
2022/05/02 11:30:27;;;;;;;15.20;9.07;;;21.00;99.90;;;;;;5076243;28;20177;-71
2022/05/02 11:33:02;;;;;;;10.57;8.55;;;21.20;99.90;;;;;;5077572;28;20162;-71
2022/05/02 11:35:35;;;;;;;15.18;10.85;;;21.60;99.90;;;;;;5075860;28;20201;-71
2022/05/02 11:38:42;;;;;;;12.10;9.40;;;21.40;99.90;;;;;;5075513;28;20240;-71
2022/05/02 11:41:21;;;;;;;13.35;10.00;;;21.50;99.90;;;;;;5076736;28;20653;-71
2022/05/02 11:43:48;;;;;;;13.13;9.38;;;21.30;99.90;;;;;;5075643;28;20201;-71
2022/05/02 11:46:20;;;;;;;12.05;8.57;;;21.40;99.90;;;;;;5077050;28;20253;-71
2022/05/02 11:49:24;;;;;;;13.00;9.25;;;21.60;99.90;;;;;;5077454;28;20219;-71
2022/05/02 11:51:51;;;;;;;16.60;9.73;;;21.90;99.90;;;;;;5075802;28;20166;-72
2022/05/02 11:54:39;;;;;;;12.52;9.30;;;22.00;99.90;;;;;;5075624;28;20255;-72
2022/05/02 11:57:34;;;;;;;11.52;8.02;;;22.20;99.90;;;;;;5077271;28;20162;-72
2022/05/02 12:00:05;;;;;;;13.73;9.82;;;22.80;99.90;;;;;;5076033;28;20247;-72
2022/05/02 12:02:35;;;;;;;11.45;9.07;;;22.70;99.90;;;;;;5075943;28;20603;-71
2022/05/02 12:05:09;;;;;;;12.73;8.73;;;22.70;99.90;;;;;;5077218;28;20200;-72
2022/05/02 12:07:38;;;;;;;11.65;7.97;;;22.90;99.90;;;;;;5076972;28;20211;-71
2022/05/02 12:10:06;;;;;;;15.75;9.27;;;23.10;99.90;;;;;;5075261;28;20192;-71
2022/05/02 12:12:32;;;;;;;13.15;9.00;;;23.40;99.90;;;;;;5077219;28;20192;-71
2022/05/02 12:15:10;;;;;;;10.32;8.23;;;23.70;99.90;;;;;;5076744;28;20244;-71
2022/05/02 12:18:03;;;;;;;11.68;9.18;;;23.70;99.90;;;;;;5077304;28;20162;-71
2022/05/02 12:20:40;;;;;;;12.40;8.63;;;24.20;99.90;;;;;;5076698;28;20233;-71
2022/05/02 12:23:18;;;;;;;10.77;8.18;;;24.40;99.90;;;;;;5076834;28;20154;-71
2022/05/02 12:25:51;;;;;;;12.07;8.60;;;24.20;99.90;;;;;;5075491;28;20177;-71
2022/05/02 12:29:03;;;;;;;13.52;9.38;;;24.10;99.90;;;;;;5075100;28;20658;-71
2022/05/02 12:31:32;;;;;;;12.00;8.45;;;23.60;99.90;;;;;;5074945;28;20261;-70
2022/05/02 12:34:03;;;;;;;10.93;8.82;;;23.90;99.90;;;;;;5075429;28;20197;-71
2022/05/02 12:36:49;;;;;;;15.35;9.77;;;24.10;99.90;;;;;;5065991;28;20221;-71
2022/05/02 12:39:33;;;;;;;13.15;9.02;;;24.30;99.90;;;;;;5076495;28;20756;-70
2022/05/02 12:42:16;;;;;;;13.32;8.45;;;24.40;99.90;;;;;;5075223;28;20185;-71
2022/05/02 12:44:44;;;;;;;12.63;9.90;;;24.20;99.90;;;;;;5074898;28;20257;-71
2022/05/02 12:47:22;;;;;;;11.40;9.13;;;24.00;99.90;;;;;;5074844;28;20671;-71
2022/05/02 12:50:13;;;;;;;15.43;10.00;;;24.30;99.90;;;;;;5076469;28;20162;-71
2022/05/02 12:52:48;;;;;;;12.63;9.95;;;24.10;99.90;;;;;;5076262;28;20161;-71
2022/05/02 12:55:15;;;;;;;12.40;9.90;;;24.40;99.90;;;;;;5075624;28;20205;-71
2022/05/02 13:00:31;;;;;;;10.52;7.80;;;24.80;99.90;;;;;;5076239;28;20651;-71
2022/05/02 13:03:02;;;;;;;15.55;10.27;;;25.40;99.90;;;;;;5075735;28;20212;-69
2022/05/02 13:05:32;;;;;;;9.52;8.32;;;25.10;99.90;;;;;;5075581;28;20158;-69
2022/05/02 13:08:11;;;;;;;10.00;7.85;;;24.80;99.90;;;;;;5074296;28;20197;-69
2022/05/02 13:10:41;;;;;;;11.10;8.30;;;24.60;99.90;;;;;;5075126;28;20197;-69
2022/05/02 13:13:09;;;;;;;14.50;10.82;;;23.90;99.90;;;;;;5075404;28;20185;-68
2022/05/02 13:15:44;;;;;;;14.55;10.45;;;23.30;99.90;;;;;;5075372;28;20272;-68
2022/05/02 13:18:13;;;;;;;15.23;11.50;;;22.80;99.90;;;;;;5075080;28;20173;-70
2022/05/02 13:20:40;;;;;;;13.05;10.30;;;22.20;99.90;;;;;;5075905;28;20166;-69
2022/05/02 13:23:08;;;;;;;15.45;9.10;;;21.60;99.90;;;;;;5075655;28;20245;-70
2022/05/02 13:25:52;;;;;;;10.23;8.15;;;21.60;99.90;;;;;;5075189;28;20180;-70
2022/05/02 13:28:26;;;;;;;11.32;8.25;;;21.50;99.90;;;;;;5074268;28;20569;-70
2022/05/02 13:30:57;;;;;;;13.45;9.32;;;21.40;99.90;;;;;;5075629;28;20165;-70
2022/05/02 13:33:51;;;;;;;11.63;9.32;;;21.60;99.90;;;;;;5075119;28;20197;-68
2022/05/02 13:36:17;;;;;;;16.60;9.93;;;21.70;99.90;;;;;;5074631;28;20562;-70
2022/05/02 13:39:01;;;;;;;12.30;9.45;;;21.80;99.90;;;;;;5074059;28;20178;-70
2022/05/02 13:41:30;;;;;;;9.90;7.72;;;21.90;99.90;;;;;;5073551;28;20185;-69